Muleshoe, Texas
Current Conditions -  °F | °C
As of 7:55 PM on Wednesday 26 Nov 2014 (Local Time) from KCVN Reporting Station
Clear Clear  
Wind Chill: 32°   Ceiling: Unl
Heat Index: 37°   Visibility: 10mi
Dew Point: 23°   Wind: 7mph
Humidity: 56%   Direction: 140°SE
Pressure: 30.31"   Gusts: NA
Location:  34.23°N, 102.72°W
Report Text: KCVN 270155Z 14006KT 10SM CLR 03/M05 A3031 RMK AO1
Loading
Personal Weather Stations






























Interactive Weather Map New forecast layout! Learn more

10-Day Weather Forecast

Advertisements
Track Severe Weather on mobile